createdAt,value
2022-11-27T00:00:22.845Z,97.57
2022-11-27T00:01:54.428Z,97.30
2022-11-27T00:03:26.777Z,97.28
2022-11-27T00:04:58.452Z,96.69
2022-11-27T00:06:31.269Z,97.34
2022-11-27T00:08:03.235Z,97.17
2022-11-27T00:09:34.811Z,97.41
2022-11-27T00:11:14.795Z,97.35
2022-11-27T00:12:46.394Z,97.63
2022-11-27T00:14:18.734Z,97.95
2022-11-27T00:15:50.475Z,97.80
2022-11-27T00:17:22.121Z,97.49
2022-11-27T00:18:53.939Z,97.55
2022-11-27T00:20:29.608Z,97.29
2022-11-27T00:22:01.375Z,96.40
2022-11-27T00:23:34.645Z,96.96
2022-11-27T00:25:06.768Z,97.16
2022-11-27T00:26:38.655Z,97.43
2022-11-27T00:28:10.364Z,97.63
2022-11-27T00:29:41.989Z,97.50
2022-11-27T00:31:17.258Z,97.77
2022-11-27T00:32:48.902Z,97.77
2022-11-27T00:34:20.486Z,97.25
2022-11-27T00:35:52.110Z,97.19
2022-11-27T00:37:23.702Z,97.04
2022-11-27T00:38:55.812Z,97.41
2022-11-27T00:40:27.425Z,96.96
2022-11-27T00:41:59.340Z,97.43
2022-11-27T00:43:31.415Z,96.96
2022-11-27T00:45:08.927Z,96.67
2022-11-27T00:46:41.724Z,97.23
2022-11-27T00:48:13.372Z,96.71
2022-11-27T00:49:46.602Z,96.14
2022-11-27T00:51:20.226Z,97.11
2022-11-27T00:52:51.787Z,97.10
2022-11-27T00:54:23.366Z,97.26
2022-11-27T00:55:56.013Z,96.66
2022-11-27T00:57:27.611Z,96.91
2022-11-27T00:58:59.825Z,96.99
2022-11-27T01:00:31.450Z,97.30
2022-11-27T01:02:03.138Z,97.16
2022-11-27T01:03:35.819Z,97.26
2022-11-27T01:05:07.984Z,96.84
2022-11-27T01:06:39.808Z,96.79
2022-11-27T01:08:11.329Z,96.86
2022-11-27T01:09:42.987Z,96.81
2022-11-27T01:11:20.642Z,96.51
2022-11-27T01:12:52.240Z,96.48
2022-11-27T01:14:23.893Z,95.96
2022-11-27T01:16:06.984Z,96.80
2022-11-27T01:17:38.773Z,96.75
2022-11-27T01:19:12.459Z,97.12
2022-11-27T01:20:44.013Z,97.00
2022-11-27T01:22:15.692Z,97.18
2022-11-27T01:23:48.536Z,97.56
2022-11-27T01:25:21.936Z,97.26
2022-11-27T01:26:57.181Z,97.06
2022-11-27T01:28:29.043Z,97.28
2022-11-27T01:30:00.672Z,97.14
2022-11-27T01:31:33.885Z,97.07
2022-11-27T01:33:05.736Z,96.83
2022-11-27T01:34:37.482Z,97.00
2022-11-27T01:36:11.640Z,97.05
2022-11-27T01:37:43.222Z,96.35
2022-11-27T01:39:20.394Z,96.31
2022-11-27T01:41:03.849Z,96.99
2022-11-27T01:42:35.357Z,96.61
2022-11-27T01:44:25.369Z,96.99
2022-11-27T01:45:56.991Z,96.47
2022-11-27T01:47:45.648Z,96.37
2022-11-27T01:49:34.285Z,96.78
2022-11-27T01:51:06.322Z,96.84
2022-11-27T01:52:42.959Z,97.19
2022-11-27T01:54:16.277Z,97.18
2022-11-27T01:55:52.770Z,96.58
2022-11-27T01:57:30.631Z,97.25
2022-11-27T01:59:03.313Z,97.31
2022-11-27T02:00:35.488Z,97.53
2022-11-27T02:02:07.383Z,97.27
2022-11-27T02:03:39.141Z,97.21
2022-11-27T02:05:15.740Z,97.28
2022-11-27T02:06:47.349Z,97.25
2022-11-27T02:08:19.290Z,96.35
2022-11-27T02:09:51.104Z,96.94
2022-11-27T02:11:48.913Z,97.10
2022-11-27T02:13:29.337Z,97.04
2022-11-27T02:15:10.880Z,96.87
2022-11-27T02:16:45.490Z,97.06
2022-11-27T02:18:51.028Z,96.72
2022-11-27T02:20:47.997Z,96.66
2022-11-27T02:22:38.389Z,96.86
2022-11-27T02:24:15.983Z,96.66
2022-11-27T02:26:06.374Z,96.19
2022-11-27T02:27:59.189Z,96.72
2022-11-27T02:29:35.353Z,96.63
2022-11-27T02:31:13.952Z,97.04
2022-11-27T02:33:01.545Z,96.56
2022-11-27T02:34:54.192Z,97.02
2022-11-27T02:36:31.626Z,97.39
2022-11-27T02:38:11.101Z,96.48
2022-11-27T02:39:55.473Z,96.91
2022-11-27T02:41:33.593Z,96.44
2022-11-27T02:43:11.157Z,96.81
2022-11-27T02:44:52.433Z,96.75
2022-11-27T02:46:27.123Z,96.65
2022-11-27T02:47:59.711Z,96.59
2022-11-27T02:49:32.916Z,97.25
2022-11-27T02:51:06.842Z,96.91
2022-11-27T02:52:40.266Z,97.47
2022-11-27T02:54:19.472Z,96.54
2022-11-27T02:55:52.927Z,97.11
2022-11-27T02:57:26.777Z,96.73
2022-11-27T02:59:02.110Z,96.84
2022-11-27T03:00:35.335Z,97.33
2022-11-27T03:02:13.446Z,97.36
2022-11-27T03:03:49.909Z,96.91
2022-11-27T03:05:26.152Z,96.76
2022-11-27T03:07:01.560Z,97.23
2022-11-27T03:08:43.972Z,97.37
2022-11-27T03:10:24.459Z,97.19
2022-11-27T03:11:56.693Z,96.54
2022-11-27T03:13:30.506Z,96.34
2022-11-27T03:15:02.179Z,96.52
2022-11-27T03:17:10.995Z,96.56
2022-11-27T03:18:59.064Z,96.00
2022-11-27T03:20:38.882Z,96.76
2022-11-27T03:22:11.353Z,96.87
2022-11-27T03:23:43.013Z,96.93
2022-11-27T03:25:16.290Z,96.70
2022-11-27T03:26:48.434Z,96.22
2022-11-27T03:28:21.306Z,96.30
2022-11-27T03:29:58.458Z,96.93
2022-11-27T03:31:30.563Z,97.13
2022-11-27T03:33:02.305Z,97.09
2022-11-27T03:34:34.185Z,96.61
2022-11-27T03:36:18.967Z,96.66
2022-11-27T03:37:51.204Z,97.17
2022-11-27T03:39:24.321Z,96.52
2022-11-27T03:41:21.760Z,96.60
2022-11-27T03:43:13.437Z,97.23
2022-11-27T03:45:22.179Z,96.83
2022-11-27T03:47:31.413Z,97.20
2022-11-27T03:49:10.875Z,96.77
2022-11-27T03:50:50.253Z,97.04
2022-11-27T03:52:53.959Z,96.84
2022-11-27T03:55:26.925Z,95.90
2022-11-27T03:57:05.432Z,95.93
2022-11-27T03:58:40.328Z,95.91
2022-11-27T04:00:12.646Z,95.83
2022-11-27T04:01:44.772Z,95.46
2022-11-27T04:03:24.850Z,96.46
2022-11-27T04:04:56.648Z,96.61
2022-11-27T04:06:28.252Z,95.86
2022-11-27T04:07:59.846Z,95.90
2022-11-27T04:09:31.381Z,96.82
2022-11-27T04:11:03.008Z,96.80
2022-11-27T04:12:34.620Z,97.11
2022-11-27T04:14:06.415Z,96.79
2022-11-27T04:15:38.077Z,97.49
2022-11-27T04:17:09.678Z,97.30
2022-11-27T04:18:41.345Z,96.58
2022-11-27T04:20:14.314Z,96.09
2022-11-27T04:21:45.855Z,96.40
2022-11-27T04:23:17.426Z,96.39
2022-11-27T04:24:49.028Z,96.66
2022-11-27T04:26:20.615Z,96.54
2022-11-27T04:27:52.252Z,96.11
2022-11-27T04:29:23.776Z,95.83
2022-11-27T04:30:55.370Z,96.26
2022-11-27T04:32:26.907Z,95.96
2022-11-27T04:33:58.532Z,95.26
2022-11-27T04:35:30.115Z,95.41
2022-11-27T04:37:01.980Z,95.36
2022-11-27T04:38:33.523Z,95.22
2022-11-27T04:40:06.022Z,95.83
2022-11-27T04:41:37.521Z,96.23
2022-11-27T04:43:09.073Z,96.28
2022-11-27T04:44:40.833Z,95.63
2022-11-27T04:46:12.576Z,96.39
2022-11-27T04:47:44.132Z,96.89
2022-11-27T04:49:15.623Z,96.71
2022-11-27T04:50:47.243Z,97.54
2022-11-27T04:52:18.807Z,97.44
2022-11-27T04:53:50.579Z,97.37
2022-11-27T04:55:22.263Z,97.20
2022-11-27T04:56:53.815Z,97.25
2022-11-27T04:58:25.361Z,97.47
2022-11-27T04:59:56.968Z,96.89
2022-11-27T05:01:28.552Z,96.82
2022-11-27T05:03:00.321Z,96.96
2022-11-27T05:04:32.019Z,97.32
2022-11-27T05:06:03.726Z,97.64
2022-11-27T05:07:35.453Z,97.70
2022-11-27T05:09:07.345Z,97.48
2022-11-27T05:10:38.922Z,96.61
2022-11-27T05:12:10.549Z,96.84
2022-11-27T05:13:42.952Z,96.69
2022-11-27T05:15:14.561Z,96.53
2022-11-27T05:16:51.376Z,96.21
2022-11-27T05:18:23.451Z,96.26
2022-11-27T05:19:55.048Z,95.66
2022-11-27T05:21:26.589Z,95.51
2022-11-27T05:22:58.082Z,95.97
2022-11-27T05:24:30.054Z,96.06
2022-11-27T05:26:01.634Z,95.85
2022-11-27T05:27:33.300Z,95.95
2022-11-27T05:29:05.591Z,95.50
2022-11-27T05:30:37.505Z,94.57
2022-11-27T05:32:09.052Z,95.14
2022-11-27T05:33:40.580Z,95.08
2022-11-27T05:35:12.185Z,95.14
2022-11-27T05:36:43.815Z,95.41
2022-11-27T05:38:15.491Z,95.58
2022-11-27T05:39:47.394Z,95.47
2022-11-27T05:41:19.294Z,96.33
2022-11-27T05:42:50.855Z,95.96
2022-11-27T05:44:22.367Z,96.11
2022-11-27T05:45:53.949Z,95.86
2022-11-27T05:47:25.697Z,96.20
2022-11-27T05:48:57.406Z,96.29
2022-11-27T05:50:29.218Z,96.23
2022-11-27T05:52:00.830Z,96.38
2022-11-27T05:53:32.992Z,95.95
2022-11-27T05:55:05.725Z,95.85
2022-11-27T05:56:37.255Z,96.72
2022-11-27T05:58:08.858Z,96.03
2022-11-27T05:59:40.423Z,96.28
2022-11-27T06:01:14.062Z,96.96
2022-11-27T06:02:45.729Z,97.28
2022-11-27T06:04:17.620Z,96.72
2022-11-27T06:05:49.191Z,96.49
2022-11-27T06:07:20.796Z,96.54
2022-11-27T06:08:52.409Z,96.11
2022-11-27T06:10:23.940Z,95.68
2022-11-27T06:11:55.563Z,96.09
2022-11-27T06:13:27.064Z,96.47
2022-11-27T06:14:58.602Z,96.78
2022-11-27T06:16:30.283Z,96.62
2022-11-27T06:18:01.943Z,96.43
2022-11-27T06:19:33.448Z,96.24
2022-11-27T06:21:14.368Z,96.41
2022-11-27T06:22:45.994Z,96.14
2022-11-27T06:24:17.582Z,96.58
2022-11-27T06:25:49.210Z,96.20
2022-11-27T06:27:20.746Z,96.00
2022-11-27T06:28:53.693Z,96.09
2022-11-27T06:30:25.285Z,95.61
2022-11-27T06:31:56.864Z,96.10
2022-11-27T06:33:28.434Z,95.74
2022-11-27T06:35:00.066Z,95.59
2022-11-27T06:36:38.054Z,96.29
2022-11-27T06:38:09.659Z,95.84
2022-11-27T06:39:41.160Z,95.22
2022-11-27T06:41:15.611Z,95.20
2022-11-27T06:42:47.163Z,95.42
2022-11-27T06:44:18.800Z,95.40
2022-11-27T06:45:56.121Z,95.56
2022-11-27T06:47:28.064Z,96.15
2022-11-27T06:48:59.710Z,95.93
2022-11-27T06:50:31.250Z,95.27
2022-11-27T06:52:02.942Z,95.21
2022-11-27T06:53:36.552Z,95.74
2022-11-27T06:55:08.361Z,95.30
2022-11-27T06:56:39.918Z,95.33
2022-11-27T06:58:11.928Z,95.07
2022-11-27T06:59:43.504Z,95.46
2022-11-27T07:01:17.155Z,96.10
2022-11-27T07:02:53.937Z,95.71
2022-11-27T07:04:25.585Z,94.68
2022-11-27T07:06:01.650Z,94.66
2022-11-27T07:07:33.279Z,95.76
2022-11-27T07:09:05.744Z,96.04
2022-11-27T07:10:37.273Z,95.33
2022-11-27T07:12:09.203Z,95.75
2022-11-27T07:13:41.233Z,96.01
2022-11-27T07:15:12.819Z,95.99
2022-11-27T07:16:44.457Z,95.61
2022-11-27T07:18:16.034Z,95.84
2022-11-27T07:19:47.683Z,95.74
2022-11-27T07:21:19.355Z,95.76
2022-11-27T07:22:50.894Z,96.07
2022-11-27T07:24:22.558Z,94.77
2022-11-27T07:25:54.108Z,94.12
2022-11-27T07:27:26.629Z,94.46
2022-11-27T07:28:58.287Z,93.91
2022-11-27T07:30:29.854Z,94.01
2022-11-27T07:32:01.496Z,95.30
2022-11-27T07:33:33.235Z,96.19
2022-11-27T07:35:05.325Z,95.94
2022-11-27T07:36:36.959Z,95.85
2022-11-27T07:38:08.501Z,94.76
2022-11-27T07:40:01.279Z,94.48
2022-11-27T07:41:34.081Z,93.92
2022-11-27T07:43:05.984Z,94.99
2022-11-27T07:44:37.534Z,94.74
2022-11-27T07:46:13.622Z,94.25
2022-11-27T07:47:45.640Z,93.71
2022-11-27T07:49:17.151Z,93.24
2022-11-27T07:50:48.806Z,94.19
2022-11-27T07:52:20.446Z,93.40
2022-11-27T07:53:52.102Z,93.48
2022-11-27T07:55:23.715Z,92.57
2022-11-27T07:56:55.327Z,91.61
2022-11-27T07:58:27.111Z,91.01
2022-11-27T07:59:58.691Z,90.03
2022-11-27T08:01:30.403Z,89.91
2022-11-27T08:03:02.218Z,91.79
2022-11-27T08:04:33.841Z,89.46
2022-11-27T08:06:13.351Z,88.39
2022-11-27T08:07:45.057Z,87.92
2022-11-27T08:09:16.701Z,90.39
2022-11-27T08:10:48.267Z,86.90
2022-11-27T08:12:19.813Z,88.21
2022-11-27T08:13:56.551Z,87.99
2022-11-27T08:15:28.381Z,87.00
2022-11-27T08:16:59.974Z,87.77
2022-11-27T08:18:31.569Z,86.43
2022-11-27T08:20:03.621Z,87.32
2022-11-27T08:21:35.211Z,88.01
2022-11-27T08:23:06.812Z,85.88
2022-11-27T08:24:39.119Z,86.38
2022-11-27T08:26:12.502Z,86.38
2022-11-27T08:27:44.791Z,84.94
2022-11-27T08:29:16.333Z,84.99
2022-11-27T08:30:56.543Z,85.24
2022-11-27T08:32:28.113Z,86.81
2022-11-27T08:33:59.967Z,87.54
2022-11-27T08:35:31.595Z,86.43
2022-11-27T08:37:06.821Z,87.14
2022-11-27T08:38:38.810Z,88.21
2022-11-27T08:40:10.932Z,88.34
2022-11-27T08:41:42.619Z,88.24
2022-11-27T08:43:14.347Z,88.68
2022-11-27T08:44:45.999Z,86.40
2022-11-27T08:46:17.647Z,85.21
2022-11-27T08:47:49.375Z,84.88
2022-11-27T08:49:21.072Z,84.04
2022-11-27T08:50:53.107Z,84.32
2022-11-27T08:52:24.751Z,83.30
2022-11-27T08:53:56.383Z,83.57
2022-11-27T08:55:28.059Z,82.56
2022-11-27T08:56:59.603Z,83.62
2022-11-27T08:58:31.218Z,82.12
2022-11-27T09:00:04.010Z,82.31
2022-11-27T09:01:35.725Z,82.61
2022-11-27T09:03:07.483Z,84.13
2022-11-27T09:04:39.547Z,83.68
2022-11-27T09:06:14.541Z,84.41
2022-11-27T09:07:46.235Z,83.79
2022-11-27T09:09:18.223Z,82.52
2022-11-27T09:10:49.822Z,82.30
2022-11-27T09:12:21.491Z,81.60
2022-11-27T09:13:53.419Z,82.24
2022-11-27T09:15:25.071Z,80.70
2022-11-27T09:16:56.883Z,81.11
2022-11-27T09:18:28.504Z,81.17
2022-11-27T09:20:00.160Z,81.03
2022-11-27T09:21:31.837Z,81.64
2022-11-27T09:23:03.531Z,81.19
2022-11-27T09:24:36.367Z,82.04
2022-11-27T09:26:17.316Z,82.12
2022-11-27T09:27:48.914Z,82.34
2022-11-27T09:29:20.740Z,81.80
2022-11-27T09:31:00.682Z,82.30
2022-11-27T09:32:32.304Z,83.52
2022-11-27T09:34:04.827Z,83.34
2022-11-27T09:35:39.602Z,82.10
2022-11-27T09:37:11.268Z,81.44
2022-11-27T09:38:42.906Z,81.68
2022-11-27T09:40:17.589Z,81.86
2022-11-27T09:41:50.327Z,82.17
2022-11-27T09:43:33.516Z,84.03
2022-11-27T09:45:11.065Z,84.19
2022-11-27T09:46:44.209Z,83.25
2022-11-27T09:48:22.057Z,84.31
2022-11-27T09:50:07.328Z,84.42
2022-11-27T09:51:43.798Z,84.58
2022-11-27T09:53:18.350Z,83.99
2022-11-27T09:54:58.050Z,82.82
2022-11-27T09:56:33.017Z,81.85
2022-11-27T09:58:11.768Z,80.87
2022-11-27T09:59:49.063Z,80.91
2022-11-27T10:01:40.544Z,80.62
2022-11-27T10:03:21.798Z,80.70
2022-11-27T10:06:45.162Z,82.34
2022-11-27T10:08:41.369Z,80.81
2022-11-27T10:10:40.768Z,79.82
2022-11-27T10:12:34.231Z,79.17
2022-11-27T10:14:17.632Z,79.81
2022-11-27T10:15:56.048Z,77.09
2022-11-27T10:17:41.012Z,77.64
2022-11-27T10:19:21.823Z,76.23
2022-11-27T10:21:03.309Z,76.62
2022-11-27T10:23:00.488Z,76.63
2022-11-27T10:24:43.676Z,76.57
2022-11-27T10:26:29.415Z,78.18
2022-11-27T10:28:27.109Z,77.85
2022-11-27T10:30:01.408Z,78.74
2022-11-27T10:31:38.850Z,79.37
2022-11-27T10:33:38.376Z,79.20
2022-11-27T10:35:22.119Z,80.44
2022-11-27T10:36:55.695Z,81.24
2022-11-27T10:38:32.176Z,80.56
2022-11-27T10:40:09.201Z,80.60
2022-11-27T10:41:53.933Z,80.95
2022-11-27T10:43:26.195Z,80.36
2022-11-27T10:45:04.440Z,79.71
2022-11-27T10:46:38.567Z,78.88
2022-11-27T10:48:11.439Z,77.69
2022-11-27T10:49:44.890Z,77.25
2022-11-27T10:51:22.893Z,77.21
2022-11-27T10:53:02.602Z,77.52
2022-11-27T10:54:39.547Z,76.12
2022-11-27T10:56:15.652Z,75.63
2022-11-27T10:58:24.150Z,74.94
2022-11-27T11:00:19.151Z,74.09
2022-11-27T11:01:53.497Z,72.60
2022-11-27T11:03:25.210Z,70.65
2022-11-27T11:05:24.150Z,67.77
2022-11-27T11:06:52.372Z,57.38
2022-11-27T11:08:25.393Z,54.46
2022-11-27T11:09:57.228Z,52.67
2022-11-27T11:11:28.814Z,55.74
2022-11-27T11:13:21.747Z,57.29
2022-11-27T11:15:00.726Z,59.09
2022-11-27T11:16:35.699Z,59.26
2022-11-27T11:18:17.553Z,61.11
2022-11-27T11:19:49.155Z,62.19
2022-11-27T11:21:34.495Z,59.63
2022-11-27T11:23:06.682Z,53.73
2022-11-27T11:24:43.705Z,51.90
2022-11-27T11:26:21.046Z,47.03
2022-11-27T11:27:52.993Z,52.43
2022-11-27T11:29:27.940Z,48.88
2022-11-27T11:31:05.852Z,50.61
2022-11-27T11:32:39.740Z,57.15
2022-11-27T11:34:22.744Z,61.63
2022-11-27T11:35:59.753Z,65.65
2022-11-27T11:37:39.748Z,66.76
2022-11-27T11:39:24.689Z,67.39
2022-11-27T11:41:02.900Z,67.51
2022-11-27T11:42:36.681Z,68.68
2022-11-27T11:44:22.771Z,69.32
2022-11-27T11:45:56.387Z,70.08
2022-11-27T11:47:28.802Z,70.00
2022-11-27T11:49:24.394Z,71.06
2022-11-27T11:51:00.624Z,72.05
2022-11-27T11:52:46.848Z,72.35
2022-11-27T11:54:29.354Z,74.12
2022-11-27T11:56:25.027Z,74.36
2022-11-27T11:58:34.661Z,74.51
2022-11-27T12:00:11.383Z,75.13
2022-11-27T12:01:58.296Z,75.46
2022-11-27T12:04:00.533Z,75.36
2022-11-27T12:05:34.983Z,76.24
2022-11-27T12:07:23.310Z,77.70
2022-11-27T12:09:06.819Z,77.15
2022-11-27T12:10:50.623Z,76.38
2022-11-27T12:12:40.659Z,77.23
2022-11-27T12:14:28.432Z,76.34
2022-11-27T12:16:35.338Z,76.31
2022-11-27T12:18:32.962Z,77.32
2022-11-27T12:20:23.559Z,76.73
2022-11-27T12:22:02.888Z,77.40
2022-11-27T12:23:37.711Z,78.42
2022-11-27T12:25:24.622Z,78.72
2022-11-27T12:27:31.315Z,75.69
2022-11-27T12:29:08.581Z,74.72
2022-11-27T12:30:59.003Z,74.92
2022-11-27T12:33:09.120Z,75.34
2022-11-27T12:34:49.423Z,73.59
2022-11-27T12:36:51.052Z,72.28
2022-11-27T12:38:30.966Z,71.95
2022-11-27T12:40:08.651Z,71.29
2022-11-27T12:41:46.780Z,70.76
2022-11-27T12:43:25.667Z,71.60
2022-11-27T12:45:06.393Z,71.36
2022-11-27T12:46:49.783Z,70.00
2022-11-27T12:48:36.695Z,70.29
2022-11-27T12:50:19.226Z,71.21
2022-11-27T12:52:03.836Z,72.90
2022-11-27T12:53:44.936Z,74.11
2022-11-27T12:55:26.630Z,73.98
2022-11-27T12:57:02.750Z,73.96
2022-11-27T12:58:41.322Z,73.97
2022-11-27T13:00:21.306Z,73.53
2022-11-27T13:02:14.251Z,74.43
2022-11-27T13:04:03.947Z,74.91
2022-11-27T13:05:41.204Z,74.13
2022-11-27T13:07:15.466Z,74.50
2022-11-27T13:08:57.433Z,76.01
2022-11-27T13:10:52.465Z,76.58
2022-11-27T13:12:28.160Z,77.07
2022-11-27T13:14:05.814Z,77.40
2022-11-27T13:16:03.102Z,76.79
2022-11-27T13:17:41.974Z,77.60
2022-11-27T13:19:23.701Z,77.02
2022-11-27T13:20:59.709Z,77.40
2022-11-27T13:22:34.680Z,77.32
2022-11-27T13:24:06.551Z,77.56
2022-11-27T13:25:51.289Z,77.87
2022-11-27T13:27:27.008Z,77.78
2022-11-27T13:29:03.306Z,77.58
2022-11-27T13:30:38.165Z,77.61
2022-11-27T13:32:18.907Z,77.86
2022-11-27T13:33:52.069Z,78.52
2022-11-27T13:35:27.407Z,78.12
2022-11-27T13:37:05.207Z,77.37
2022-11-27T13:38:41.902Z,77.92
2022-11-27T13:40:16.334Z,77.96
2022-11-27T13:41:49.145Z,78.66
2022-11-27T13:43:20.765Z,78.49
2022-11-27T13:45:01.729Z,78.59
2022-11-27T13:46:45.800Z,78.60
2022-11-27T13:48:32.673Z,78.72
2022-11-27T13:50:09.251Z,78.48
2022-11-27T13:51:42.655Z,78.63
2022-11-27T13:53:14.469Z,78.31
2022-11-27T13:55:00.441Z,78.95
2022-11-27T13:56:32.078Z,79.11
2022-11-27T13:58:05.600Z,78.40
2022-11-27T13:59:39.425Z,78.46
2022-11-27T14:01:18.274Z,78.46
2022-11-27T14:02:51.625Z,78.93
2022-11-27T14:04:23.652Z,78.60
2022-11-27T14:05:56.555Z,79.44
2022-11-27T14:07:37.821Z,79.43
2022-11-27T14:09:09.553Z,78.47
2022-11-27T14:10:50.956Z,79.13
2022-11-27T14:12:33.382Z,79.38
2022-11-27T14:14:20.236Z,79.32
2022-11-27T14:16:02.342Z,79.32
2022-11-27T14:17:44.531Z,79.00
2022-11-27T14:19:33.832Z,78.91
2022-11-27T14:21:05.803Z,79.47
2022-11-27T14:23:07.032Z,79.44
2022-11-27T14:24:43.684Z,78.98
2022-11-27T14:26:15.849Z,79.21
2022-11-27T14:27:50.055Z,79.57
2022-11-27T14:31:33.408Z,79.71
2022-11-27T14:33:15.564Z,80.28
2022-11-27T14:34:48.840Z,80.10
2022-11-27T14:36:27.013Z,79.92
2022-11-27T14:38:13.900Z,80.10
2022-11-27T14:39:45.569Z,80.39
2022-11-27T14:41:20.278Z,80.39
2022-11-27T14:42:52.161Z,80.88
2022-11-27T14:44:23.805Z,80.60
2022-11-27T14:45:58.844Z,81.31
2022-11-27T14:47:30.783Z,80.92
2022-11-27T14:49:02.754Z,80.79
2022-11-27T14:50:34.471Z,80.79
2022-11-27T14:52:12.608Z,80.96
2022-11-27T14:53:49.631Z,81.02
2022-11-27T14:55:22.718Z,81.16
2022-11-27T14:56:55.502Z,81.39
2022-11-27T14:58:29.998Z,81.86
2022-11-27T15:00:16.131Z,81.65
2022-11-27T15:02:03.691Z,82.26
2022-11-27T15:03:35.701Z,82.27
2022-11-27T15:05:07.915Z,81.98
2022-11-27T15:06:43.863Z,82.76
2022-11-27T15:08:15.989Z,83.33
2022-11-27T15:09:50.326Z,82.93
2022-11-27T15:11:53.932Z,83.35
2022-11-27T15:13:24.326Z,83.63
2022-11-27T15:15:07.705Z,83.46
2022-11-27T15:16:49.355Z,83.84
2022-11-27T15:18:23.031Z,84.15
2022-11-27T15:19:56.278Z,84.27
2022-11-27T15:21:28.676Z,83.68
2022-11-27T15:23:00.776Z,83.88
2022-11-27T15:24:37.187Z,84.29
2022-11-27T15:26:15.876Z,84.58
2022-11-27T15:27:48.164Z,84.91
2022-11-27T15:29:36.160Z,84.61
2022-11-27T15:31:29.666Z,84.86
2022-11-27T15:33:01.472Z,84.58
2022-11-27T15:34:34.962Z,85.19
2022-11-27T15:36:18.892Z,85.19
2022-11-27T15:37:51.731Z,85.21
2022-11-27T15:39:25.457Z,85.41
2022-11-27T15:41:00.777Z,85.86
2022-11-27T15:42:32.492Z,85.45
2022-11-27T15:44:08.716Z,85.57
2022-11-27T15:45:41.232Z,85.29
2022-11-27T15:47:40.224Z,85.77
2022-11-27T15:49:14.189Z,85.29
2022-11-27T15:50:51.366Z,85.86
2022-11-27T15:52:24.111Z,85.35
2022-11-27T15:53:55.749Z,85.72
2022-11-27T15:55:27.433Z,85.49
2022-11-27T15:56:58.998Z,85.56
2022-11-27T15:58:30.632Z,85.93
2022-11-27T16:00:04.037Z,85.92
2022-11-27T16:01:43.233Z,86.07
2022-11-27T16:03:15.575Z,86.27
2022-11-27T16:04:47.172Z,85.91
2022-11-27T16:06:20.861Z,86.29
2022-11-27T16:07:55.307Z,86.06
2022-11-27T16:09:27.558Z,86.49
2022-11-27T16:11:01.710Z,86.31
2022-11-27T16:12:33.463Z,86.06
2022-11-27T16:14:05.227Z,85.78
2022-11-27T16:15:36.870Z,86.14
2022-11-27T16:17:08.600Z,86.73
2022-11-27T16:18:40.211Z,86.40
2022-11-27T16:20:12.358Z,86.35
2022-11-27T16:21:44.118Z,86.16
2022-11-27T16:23:15.749Z,86.49
2022-11-27T16:24:47.358Z,86.45
2022-11-27T16:26:18.887Z,86.51
2022-11-27T16:27:50.540Z,86.73
2022-11-27T16:29:22.350Z,87.27
2022-11-27T16:30:55.869Z,86.66
2022-11-27T16:32:27.529Z,86.65
2022-11-27T16:34:01.521Z,86.82
2022-11-27T16:35:33.304Z,87.05
2022-11-27T16:37:05.615Z,87.02
2022-11-27T16:38:37.865Z,87.44
2022-11-27T16:40:10.250Z,87.64
2022-11-27T16:41:42.386Z,87.14
2022-11-27T16:43:14.509Z,87.22
2022-11-27T16:44:46.410Z,87.41
2022-11-27T16:46:21.152Z,85.89
2022-11-27T16:47:53.252Z,84.28
2022-11-27T16:49:25.035Z,83.26
2022-11-27T16:51:03.426Z,82.85
2022-11-27T16:52:35.164Z,81.84
2022-11-27T16:54:10.045Z,82.28
2022-11-27T16:55:42.347Z,83.91
2022-11-27T16:57:14.078Z,84.73
2022-11-27T16:58:47.295Z,83.27
2022-11-27T17:00:19.374Z,83.92
2022-11-27T17:01:51.620Z,84.08
2022-11-27T17:03:23.357Z,82.42
2022-11-27T17:04:56.007Z,80.43
2022-11-27T17:06:30.103Z,78.78
2022-11-27T17:08:01.782Z,81.09
2022-11-27T17:09:33.559Z,78.35
2022-11-27T17:11:14.136Z,79.38
2022-11-27T17:12:45.758Z,80.89
2022-11-27T17:14:18.491Z,80.82
2022-11-27T17:15:50.283Z,81.77
2022-11-27T17:17:22.149Z,80.63
2022-11-27T17:18:54.252Z,81.42
2022-11-27T17:20:26.976Z,80.41
2022-11-27T17:21:58.740Z,79.80
2022-11-27T17:23:30.505Z,78.34
2022-11-27T17:25:03.084Z,78.32
2022-11-27T17:26:42.356Z,80.28
2022-11-27T17:28:14.078Z,81.42
2022-11-27T17:29:45.725Z,82.30
2022-11-27T17:31:20.314Z,83.08
2022-11-27T17:32:52.481Z,82.90
2022-11-27T17:34:24.129Z,82.29
2022-11-27T17:35:56.247Z,82.10
2022-11-27T17:37:28.013Z,81.75
2022-11-27T17:39:02.524Z,81.45
2022-11-27T17:40:34.103Z,82.23
2022-11-27T17:42:10.033Z,81.66
2022-11-27T17:43:44.526Z,81.04
2022-11-27T17:45:16.444Z,80.92
2022-11-27T17:46:50.604Z,80.81
2022-11-27T17:48:24.292Z,80.92
2022-11-27T17:49:55.935Z,80.58
2022-11-27T17:51:30.374Z,80.54
2022-11-27T17:53:02.923Z,80.33
2022-11-27T17:54:34.840Z,81.38
2022-11-27T17:56:09.115Z,81.68
2022-11-27T17:57:40.828Z,81.93
2022-11-27T17:59:13.025Z,82.04
2022-11-27T18:00:45.678Z,81.63
2022-11-27T18:02:17.858Z,82.54
2022-11-27T18:03:50.355Z,81.61
2022-11-27T18:05:22.000Z,80.99
2022-11-27T18:06:53.676Z,80.29
2022-11-27T18:08:28.000Z,79.45
2022-11-27T18:09:59.792Z,79.66
2022-11-27T18:11:34.063Z,80.78
2022-11-27T18:13:05.902Z,80.30
2022-11-27T18:14:37.680Z,80.76
2022-11-27T18:16:22.069Z,81.35
2022-11-27T18:17:53.913Z,81.31
2022-11-27T18:19:25.525Z,80.08
2022-11-27T18:20:57.204Z,80.67
2022-11-27T18:22:28.883Z,82.16
2022-11-27T18:24:22.618Z,82.89
2022-11-27T18:25:52.819Z,83.96
2022-11-27T18:27:24.610Z,84.94
2022-11-27T18:28:58.530Z,84.95
2022-11-27T18:30:30.249Z,85.13
2022-11-27T18:32:02.156Z,85.89
2022-11-27T18:33:33.995Z,85.58
2022-11-27T18:35:06.747Z,85.52
2022-11-27T18:36:38.391Z,86.26
2022-11-27T18:38:10.238Z,85.22
2022-11-27T18:39:44.426Z,84.83
2022-11-27T18:41:23.877Z,84.99
2022-11-27T18:42:55.499Z,85.55
2022-11-27T18:44:27.400Z,85.25
2022-11-27T18:45:59.178Z,85.33
2022-11-27T18:47:32.112Z,85.17
2022-11-27T18:49:03.840Z,85.50
2022-11-27T18:50:36.163Z,85.77
2022-11-27T18:52:09.144Z,86.08
2022-11-27T18:53:42.095Z,86.29
2022-11-27T18:55:14.240Z,85.89
2022-11-27T18:56:46.071Z,86.19
2022-11-27T18:58:18.363Z,86.31
2022-11-27T18:59:50.278Z,86.63
2022-11-27T19:01:26.194Z,86.67
2022-11-27T19:02:58.257Z,86.43
2022-11-27T19:04:30.010Z,86.87
2022-11-27T19:06:03.188Z,86.43
2022-11-27T19:07:34.894Z,86.30
2022-11-27T19:09:07.006Z,86.93
2022-11-27T19:10:38.873Z,86.95
2022-11-27T19:12:10.703Z,86.96
2022-11-27T19:13:43.022Z,87.15
2022-11-27T19:15:14.806Z,87.03
2022-11-27T19:16:47.057Z,87.34
2022-11-27T19:18:18.899Z,87.06
2022-11-27T19:19:54.225Z,87.03
2022-11-27T19:21:28.090Z,87.31
2022-11-27T19:23:01.570Z,87.51
2022-11-27T19:24:33.491Z,87.05
2022-11-27T19:26:10.383Z,87.13
2022-11-27T19:27:42.959Z,86.03
2022-11-27T19:29:14.981Z,85.09
2022-11-27T19:30:48.204Z,85.30
2022-11-27T19:32:20.012Z,84.59
2022-11-27T19:33:56.407Z,84.90
2022-11-27T19:35:30.330Z,84.87
2022-11-27T19:37:02.071Z,85.09
2022-11-27T19:38:34.106Z,85.15
2022-11-27T19:40:07.187Z,85.59
2022-11-27T19:41:38.858Z,84.80
2022-11-27T19:43:10.549Z,85.58
2022-11-27T19:44:42.556Z,85.45
2022-11-27T19:46:17.560Z,85.22
2022-11-27T19:47:49.393Z,85.68
2022-11-27T19:49:21.622Z,85.64
2022-11-27T19:50:53.249Z,85.63
2022-11-27T19:52:24.972Z,85.95
2022-11-27T19:53:56.870Z,85.82
2022-11-27T19:55:28.709Z,85.57
2022-11-27T19:57:00.454Z,86.18
2022-11-27T19:58:32.520Z,86.66
2022-11-27T20:00:06.873Z,87.04
2022-11-27T20:01:45.257Z,86.89
2022-11-27T20:03:16.975Z,86.56
2022-11-27T20:04:48.721Z,87.19
2022-11-27T20:06:22.658Z,87.02
2022-11-27T20:07:54.423Z,87.23
2022-11-27T20:09:26.247Z,87.31
2022-11-27T20:10:58.339Z,87.61
2022-11-27T20:12:36.148Z,87.12
2022-11-27T20:14:07.855Z,86.98
2022-11-27T20:15:39.510Z,87.54
2022-11-27T20:17:11.369Z,87.28
2022-11-27T20:18:43.997Z,88.18
2022-11-27T20:20:16.894Z,88.11
2022-11-27T20:21:48.534Z,87.81
2022-11-27T20:23:20.331Z,87.70
2022-11-27T20:25:17.975Z,87.87
2022-11-27T20:26:44.849Z,87.68
2022-11-27T20:28:16.492Z,87.55
2022-11-27T20:29:48.635Z,87.83
2022-11-27T20:31:24.987Z,87.94
2022-11-27T20:33:00.878Z,87.74
2022-11-27T20:34:36.101Z,88.47
2022-11-27T20:36:16.397Z,87.85